Time;durP1;ratioP1;P1;durP2;ratioP2;P2;SDS_P1;SDS_P2;PMS_P1;PMS_P2;Temp;Humidity;BMP_temperature;BMP_pressure;BME280_temperature;BME280_humidity;BME280_pressure;Samples;Min_cycle;Max_cycle;Signal;HPM_P1;HPM_P2
2021/04/30 00:02:25;;;;;;;20.00;7.20;;;;;;;;;;5042182;28;37092;-76
2021/04/30 00:04:52;;;;;;;17.33;7.37;;;;;;;;;;5040416;28;38745;-77
2021/04/30 00:07:18;;;;;;;16.97;7.50;;;;;;;;;;5033951;28;39017;-77
2021/04/30 00:09:44;;;;;;;30.50;8.40;;;;;;;;;;5028972;28;37871;-77
2021/04/30 00:12:11;;;;;;;18.20;7.07;;;;;;;;;;5027349;28;36852;-77
2021/04/30 00:14:37;;;;;;;19.40;9.43;;;;;;;;;;5027988;28;39256;-77
2021/04/30 00:17:04;;;;;;;17.93;8.80;;;;;;;;;;5029206;28;39051;-77
2021/04/30 00:19:31;;;;;;;18.87;8.53;;;;;;;;;;5051712;28;38592;-77
2021/04/30 00:21:57;;;;;;;22.83;8.57;;;;;;;;;;5037132;28;36752;-77
2021/04/30 00:24:23;;;;;;;22.90;8.00;;;;;;;;;;5043224;28;41125;-77
2021/04/30 00:26:50;;;;;;;16.23;6.83;;;;;;;;;;5040430;28;39264;-77
2021/04/30 00:29:16;;;;;;;15.83;7.20;;;;;;;;;;5043281;28;37623;-77
2021/04/30 00:31:43;;;;;;;26.23;7.40;;;;;;;;;;5031866;28;36702;-77
2021/04/30 00:34:09;;;;;;;19.70;6.63;;;;;;;;;;5053490;28;40155;-78
2021/04/30 00:36:36;;;;;;;15.00;5.73;;;;;;;;;;5034938;28;38557;-78
2021/04/30 00:39:03;;;;;;;20.33;6.10;;;;;;;;;;5056294;28;36969;-77
2021/04/30 00:41:29;;;;;;;17.83;5.40;;;;;;;;;;5039481;28;38382;-77
2021/04/30 00:43:57;;;;;;;15.80;5.90;;;;;;;;;;5037280;28;39085;-77
2021/04/30 00:46:24;;;;;;;16.63;5.57;;;;;;;;;;5034798;28;40381;-77
2021/04/30 00:48:50;;;;;;;14.20;5.00;;;;;;;;;;5037195;28;39249;-77
2021/04/30 00:51:17;;;;;;;18.33;5.63;;;;;;;;;;5037849;28;37192;-77
2021/04/30 00:53:43;;;;;;;16.40;5.80;;;;;;;;;;5034943;28;38834;-77
2021/04/30 00:56:09;;;;;;;13.53;4.90;;;;;;;;;;5032919;28;37959;-77
2021/04/30 00:58:36;;;;;;;19.43;5.07;;;;;;;;;;5036417;28;39021;-77
2021/04/30 01:01:02;;;;;;;16.20;4.47;;;;;;;;;;5036235;28;37085;-77
2021/04/30 01:03:29;;;;;;;18.17;5.07;;;;;;;;;;5037612;28;40146;-77
2021/04/30 01:05:55;;;;;;;14.30;5.77;;;;;;;;;;5038039;28;38336;-77
2021/04/30 01:08:22;;;;;;;22.97;6.17;;;;;;;;;;5040636;28;38489;-77
2021/04/30 01:10:48;;;;;;;16.70;5.30;;;;;;;;;;5039480;28;37792;-77
2021/04/30 01:13:14;;;;;;;15.33;4.93;;;;;;;;;;5041539;28;38315;-76
2021/04/30 01:15:41;;;;;;;15.03;5.20;;;;;;;;;;5036804;28;37679;-78
2021/04/30 01:18:08;;;;;;;14.70;5.33;;;;;;;;;;5043011;28;38833;-78
2021/04/30 01:20:34;;;;;;;18.13;5.53;;;;;;;;;;5041937;28;37948;-77
2021/04/30 01:23:00;;;;;;;12.13;5.50;;;;;;;;;;5036821;28;38381;-77
2021/04/30 01:25:28;;;;;;;11.93;4.27;;;;;;;;;;5032181;28;39948;-77
2021/04/30 01:27:55;;;;;;;13.27;4.27;;;;;;;;;;5036078;28;39505;-77
2021/04/30 01:30:23;;;;;;;18.63;4.53;;;;;;;;;;5050974;28;35992;-78
2021/04/30 01:32:50;;;;;;;15.20;4.83;;;;;;;;;;5047574;28;38220;-77
2021/04/30 01:35:20;;;;;;;20.67;4.77;;;;;;;;;;5038955;28;39484;-77
2021/04/30 01:37:48;;;;;;;19.57;6.30;;;;;;;;;;5034278;28;38550;-77
2021/04/30 01:40:17;;;;;;;13.67;5.27;;;;;;;;;;5039095;28;37466;-77
2021/04/30 01:43:01;;;;;;;15.00;5.50;;;;;;;;;;5036692;28;38541;-78
2021/04/30 01:45:29;;;;;;;15.80;4.70;;;;;;;;;;5054293;28;47201;-77
2021/04/30 01:47:56;;;;;;;18.53;5.93;;;;;;;;;;5039464;28;38412;-77
2021/04/30 01:50:22;;;;;;;19.33;7.10;;;;;;;;;;5032260;28;38742;-77
2021/04/30 01:52:49;;;;;;;16.83;6.37;;;;;;;;;;5044160;28;39934;-77
2021/04/30 01:55:15;;;;;;;12.13;6.37;;;;;;;;;;5054225;28;38864;-78
2021/04/30 01:57:43;;;;;;;17.87;6.67;;;;;;;;;;5038753;28;39648;-77
2021/04/30 02:00:17;;;;;;;19.67;6.57;;;;;;;;;;5036825;28;36500;-78
2021/04/30 02:02:44;;;;;;;18.27;6.43;;;;;;;;;;5028550;28;40799;-77
2021/04/30 02:05:10;;;;;;;19.60;7.10;;;;;;;;;;5030686;28;38236;-77
2021/04/30 02:07:37;;;;;;;19.67;5.47;;;;;;;;;;5030202;28;39023;-77
2021/04/30 02:10:05;;;;;;;15.27;5.20;;;;;;;;;;5030695;28;37322;-77
2021/04/30 02:12:31;;;;;;;15.97;5.77;;;;;;;;;;5044105;28;39344;-77
2021/04/30 02:14:57;;;;;;;20.33;5.13;;;;;;;;;;5033334;28;36618;-77
2021/04/30 02:17:24;;;;;;;10.93;3.90;;;;;;;;;;5028880;28;38733;-77
2021/04/30 02:19:50;;;;;;;17.27;4.07;;;;;;;;;;5045490;28;37908;-77
2021/04/30 02:22:16;;;;;;;17.37;3.50;;;;;;;;;;5037425;28;39192;-77
2021/04/30 02:24:43;;;;;;;21.63;4.30;;;;;;;;;;5040891;28;38196;-77
2021/04/30 02:27:09;;;;;;;22.00;5.37;;;;;;;;;;5037030;28;38307;-77
2021/04/30 02:29:35;;;;;;;18.50;4.17;;;;;;;;;;5034248;28;37394;-77
2021/04/30 02:32:03;;;;;;;14.17;5.13;;;;;;;;;;5028505;28;40281;-77
2021/04/30 02:34:29;;;;;;;15.00;4.10;;;;;;;;;;5039497;28;38745;-77
2021/04/30 02:36:55;;;;;;;16.27;3.67;;;;;;;;;;5036836;28;38609;-77
2021/04/30 02:39:24;;;;;;;13.80;3.50;;;;;;;;;;5042380;28;36240;-77
2021/04/30 02:41:50;;;;;;;16.67;3.77;;;;;;;;;;5035348;28;41033;-77
2021/04/30 02:44:17;;;;;;;19.23;4.30;;;;;;;;;;5047904;28;37192;-77
2021/04/30 02:46:43;;;;;;;17.43;3.90;;;;;;;;;;5037836;28;38059;-77
2021/04/30 02:49:14;;;;;;;14.57;3.63;;;;;;;;;;5033292;28;36913;-77
2021/04/30 02:51:41;;;;;;;13.70;3.93;;;;;;;;;;5039185;28;38958;-77
2021/04/30 02:54:08;;;;;;;22.67;4.27;;;;;;;;;;5037468;28;38198;-77
2021/04/30 02:56:35;;;;;;;19.93;4.73;;;;;;;;;;5041237;28;39691;-77
2021/04/30 02:59:04;;;;;;;15.63;3.50;;;;;;;;;;5039276;28;37066;-78
2021/04/30 03:01:31;;;;;;;15.47;3.57;;;;;;;;;;5039811;28;39332;-77
2021/04/30 03:03:57;;;;;;;17.73;4.07;;;;;;;;;;5037208;28;38078;-77
2021/04/30 03:06:24;;;;;;;14.40;4.20;;;;;;;;;;5045907;28;38101;-77
2021/04/30 03:08:54;;;;;;;20.80;4.37;;;;;;;;;;5034726;28;34099;-78
2021/04/30 03:11:21;;;;;;;14.90;3.60;;;;;;;;;;5030986;28;40775;-78
2021/04/30 03:13:47;;;;;;;20.77;4.73;;;;;;;;;;5034844;28;38954;-77
2021/04/30 03:16:14;;;;;;;21.40;4.30;;;;;;;;;;5031573;28;35713;-77
2021/04/30 03:18:40;;;;;;;15.97;4.00;;;;;;;;;;5054011;28;37004;-77
2021/04/30 03:21:06;;;;;;;23.23;4.90;;;;;;;;;;5039677;28;39776;-76
2021/04/30 03:23:33;;;;;;;12.77;3.50;;;;;;;;;;5050078;28;38417;-76
2021/04/30 03:26:00;;;;;;;17.93;4.33;;;;;;;;;;5038782;28;37610;-77
2021/04/30 03:28:26;;;;;;;12.83;4.03;;;;;;;;;;5041052;28;37386;-77
2021/04/30 03:30:52;;;;;;;17.97;4.73;;;;;;;;;;5028740;28;39749;-77
2021/04/30 03:33:19;;;;;;;11.80;3.80;;;;;;;;;;5046704;28;39432;-76
2021/04/30 03:35:45;;;;;;;14.77;4.13;;;;;;;;;;5041516;28;38626;-76
2021/04/30 03:38:12;;;;;;;20.63;4.00;;;;;;;;;;5034674;28;37616;-77
2021/04/30 03:40:38;;;;;;;15.37;4.23;;;;;;;;;;5043894;28;38502;-77
2021/04/30 03:43:04;;;;;;;17.57;3.77;;;;;;;;;;5041085;28;39270;-77
2021/04/30 03:45:31;;;;;;;16.63;4.87;;;;;;;;;;5039795;28;38373;-77
2021/04/30 03:47:57;;;;;;;19.90;4.53;;;;;;;;;;5032079;28;37526;-77
2021/04/30 03:50:23;;;;;;;25.27;4.90;;;;;;;;;;5028910;28;39513;-77
2021/04/30 03:52:50;;;;;;;13.07;3.73;;;;;;;;;;5044559;28;40019;-77
2021/04/30 03:55:17;;;;;;;20.20;4.00;;;;;;;;;;5031910;28;39520;-77
2021/04/30 03:57:43;;;;;;;22.87;4.70;;;;;;;;;;5031254;28;36345;-77
2021/04/30 04:00:09;;;;;;;20.30;5.07;;;;;;;;;;5034717;28;38842;-77
2021/04/30 04:02:36;;;;;;;15.60;4.40;;;;;;;;;;5040842;28;38441;-77
2021/04/30 04:05:02;;;;;;;13.63;3.90;;;;;;;;;;5032271;28;36676;-77
2021/04/30 04:07:29;;;;;;;22.87;5.00;;;;;;;;;;5042315;28;36578;-77
2021/04/30 04:09:55;;;;;;;17.03;5.07;;;;;;;;;;5031601;28;39771;-77
2021/04/30 04:12:21;;;;;;;19.17;4.97;;;;;;;;;;5027457;28;38663;-77
2021/04/30 04:14:48;;;;;;;16.53;5.30;;;;;;;;;;5030214;28;37773;-78
2021/04/30 04:17:15;;;;;;;18.20;4.73;;;;;;;;;;5034214;28;35117;-77
2021/04/30 04:19:41;;;;;;;16.43;5.53;;;;;;;;;;5029917;28;39137;-77
2021/04/30 04:22:07;;;;;;;19.20;4.90;;;;;;;;;;5031028;28;38352;-77
2021/04/30 04:24:34;;;;;;;17.60;5.17;;;;;;;;;;5032039;28;37878;-77
2021/04/30 04:27:00;;;;;;;22.70;5.87;;;;;;;;;;5028180;28;37710;-77
2021/04/30 04:29:26;;;;;;;25.40;6.03;;;;;;;;;;5031724;28;39549;-77
2021/04/30 04:31:53;;;;;;;17.70;5.83;;;;;;;;;;5027329;28;40196;-77
2021/04/30 04:34:19;;;;;;;21.37;6.47;;;;;;;;;;5044057;28;38000;-77
2021/04/30 04:36:45;;;;;;;17.43;5.40;;;;;;;;;;5026904;28;37341;-77
2021/04/30 04:39:12;;;;;;;19.90;5.80;;;;;;;;;;5030860;28;38968;-77
2021/04/30 04:41:38;;;;;;;15.73;5.87;;;;;;;;;;5032706;28;39198;-77
2021/04/30 04:44:05;;;;;;;23.00;6.17;;;;;;;;;;5031761;28;38709;-77
2021/04/30 04:46:31;;;;;;;22.70;6.50;;;;;;;;;;5034896;28;37181;-76
2021/04/30 04:48:57;;;;;;;19.77;6.03;;;;;;;;;;5055866;28;39433;-77
2021/04/30 04:51:24;;;;;;;16.97;6.53;;;;;;;;;;5027341;28;37257;-77
2021/04/30 04:53:50;;;;;;;14.33;5.73;;;;;;;;;;5024175;28;37784;-77
2021/04/30 04:56:17;;;;;;;19.83;6.40;;;;;;;;;;5030367;28;37866;-77
2021/04/30 04:58:43;;;;;;;23.70;6.63;;;;;;;;;;5030484;28;38061;-77
2021/04/30 05:01:09;;;;;;;22.60;7.97;;;;;;;;;;5027626;28;38382;-77
2021/04/30 05:03:36;;;;;;;20.13;6.20;;;;;;;;;;5054493;28;37420;-77
2021/04/30 05:06:02;;;;;;;19.27;6.00;;;;;;;;;;5041672;28;38652;-77
2021/04/30 05:08:29;;;;;;;13.53;5.13;;;;;;;;;;5038682;28;48552;-77
2021/04/30 05:10:55;;;;;;;26.60;6.43;;;;;;;;;;5032297;28;37319;-77
2021/04/30 05:13:21;;;;;;;15.70;6.17;;;;;;;;;;5033779;28;38913;-78
2021/04/30 05:15:48;;;;;;;20.60;6.53;;;;;;;;;;5049195;28;37513;-77
2021/04/30 05:18:14;;;;;;;19.33;5.60;;;;;;;;;;5031266;28;37261;-76
2021/04/30 05:20:40;;;;;;;17.47;6.03;;;;;;;;;;5028322;28;38487;-76
2021/04/30 05:23:07;;;;;;;17.63;6.03;;;;;;;;;;5037471;28;39708;-76
2021/04/30 05:25:33;;;;;;;21.53;5.50;;;;;;;;;;5036325;28;37114;-77
2021/04/30 05:28:00;;;;;;;25.87;6.80;;;;;;;;;;5034287;28;38649;-76
2021/04/30 05:30:26;;;;;;;16.73;5.87;;;;;;;;;;5031364;28;38007;-76
2021/04/30 05:32:53;;;;;;;15.67;6.80;;;;;;;;;;5026769;28;36768;-77
2021/04/30 05:35:19;;;;;;;31.07;7.83;;;;;;;;;;5026261;28;38613;-76
2021/04/30 05:37:45;;;;;;;23.27;7.00;;;;;;;;;;5025357;28;40668;-76
2021/04/30 05:40:12;;;;;;;21.57;6.67;;;;;;;;;;5031875;28;38646;-76
2021/04/30 05:42:39;;;;;;;13.37;6.73;;;;;;;;;;5037277;28;37121;-77
2021/04/30 05:45:05;;;;;;;19.07;6.33;;;;;;;;;;5031155;28;38078;-77
2021/04/30 05:47:32;;;;;;;20.87;8.07;;;;;;;;;;5035586;28;37095;-77
2021/04/30 05:49:58;;;;;;;19.33;6.90;;;;;;;;;;5034540;28;40552;-77
2021/04/30 05:52:24;;;;;;;21.80;6.93;;;;;;;;;;5047443;28;38237;-77
2021/04/30 05:54:51;;;;;;;22.00;8.43;;;;;;;;;;5031292;28;35179;-77
2021/04/30 05:57:17;;;;;;;26.07;8.70;;;;;;;;;;5032668;28;39063;-78
2021/04/30 05:59:43;;;;;;;23.50;10.37;;;;;;;;;;5033251;28;38882;-77
2021/04/30 06:02:10;;;;;;;20.77;10.63;;;;;;;;;;5035194;28;37395;-77
2021/04/30 06:04:36;;;;;;;24.07;9.97;;;;;;;;;;5031551;28;37954;-77
2021/04/30 06:07:03;;;;;;;11.07;7.97;;;;;;;;;;5033122;28;40519;-77
2021/04/30 06:09:29;;;;;;;14.07;8.57;;;;;;;;;;5036193;28;40069;-76
2021/04/30 06:11:55;;;;;;;16.23;8.40;;;;;;;;;;5034319;28;37625;-76
2021/04/30 06:14:29;;;;;;;20.20;11.53;;;;;;;;;;5040815;28;37945;-76
2021/04/30 06:16:57;;;;;;;17.43;10.10;;;;;;;;;;5036341;28;38679;-77
2021/04/30 06:19:24;;;;;;;15.33;10.13;;;;;;;;;;5037327;28;38631;-77
2021/04/30 06:21:50;;;;;;;17.93;12.03;;;;;;;;;;5031366;28;38689;-77
2021/04/30 06:24:17;;;;;;;18.60;12.10;;;;;;;;;;5040722;28;37392;-77
2021/04/30 06:26:43;;;;;;;17.87;10.80;;;;;;;;;;5041748;28;38525;-77
2021/04/30 06:29:10;;;;;;;18.50;11.93;;;;;;;;;;5041140;28;36852;-78
2021/04/30 06:31:36;;;;;;;29.53;16.40;;;;;;;;;;5039525;28;38694;-77
2021/04/30 06:34:03;;;;;;;19.67;13.13;;;;;;;;;;5040788;28;39013;-79
2021/04/30 06:36:29;;;;;;;24.13;14.57;;;;;;;;;;5044232;28;39739;-78
2021/04/30 06:38:56;;;;;;;21.13;14.00;;;;;;;;;;5045197;28;39505;-79
2021/04/30 06:41:22;;;;;;;24.97;15.23;;;;;;;;;;5044622;28;40989;-79
2021/04/30 06:43:49;;;;;;;24.73;16.03;;;;;;;;;;5046273;28;37911;-79
2021/04/30 06:46:15;;;;;;;32.50;17.80;;;;;;;;;;5039083;28;37722;-79
2021/04/30 06:48:42;;;;;;;31.83;16.73;;;;;;;;;;5043827;28;37076;-79
2021/04/30 06:51:08;;;;;;;25.20;16.17;;;;;;;;;;5042058;28;37717;-79
2021/04/30 06:53:35;;;;;;;26.10;16.90;;;;;;;;;;5044032;28;39000;-79
2021/04/30 06:56:03;;;;;;;29.67;18.17;;;;;;;;;;5045118;28;38851;-79
2021/04/30 06:58:29;;;;;;;22.63;15.80;;;;;;;;;;5038388;28;38752;-79
2021/04/30 07:00:56;;;;;;;25.10;15.70;;;;;;;;;;5040240;28;38560;-79
2021/04/30 07:03:22;;;;;;;27.20;17.57;;;;;;;;;;5043869;28;38502;-81
2021/04/30 07:05:48;;;;;;;26.08;16.88;;;;;;;;;;5038684;28;38476;-78
2021/04/30 07:08:15;;;;;;;24.15;17.08;;;;;;;;;;5038628;28;38996;-79
2021/04/30 07:10:41;;;;;;;28.88;16.60;;;;;;;;;;5039775;28;39203;-79
2021/04/30 07:13:11;;;;;;;23.35;16.45;;;;;;;;;;5039340;28;37631;-78
2021/04/30 07:15:38;;;;;;;17.23;13.68;;;;;;;;;;5036570;28;39452;-79
2021/04/30 07:18:04;;;;;;;25.40;17.67;;;;;;;;;;5038369;28;38651;-79
2021/04/30 07:20:33;;;;;;;19.15;14.75;;;;;;;;;;5039582;28;39312;-78
2021/04/30 07:23:00;;;;;;;19.10;13.25;;;;;;;;;;5030754;28;37732;-78
2021/04/30 07:25:26;;;;;;;20.90;12.77;;;;;;;;;;5034979;28;38431;-78
2021/04/30 07:27:52;;;;;;;17.65;11.73;;;;;;;;;;5037437;28;37046;-78
2021/04/30 07:30:19;;;;;;;18.00;13.38;;;;;;;;;;5035792;28;38967;-77
2021/04/30 07:32:45;;;;;;;18.33;11.60;;;;;;;;;;5034278;28;35831;-78
2021/04/30 07:35:12;;;;;;;19.63;12.07;;;;;;;;;;5034808;28;37433;-78
2021/04/30 07:37:38;;;;;;;22.05;12.55;;;;;;;;;;5030406;28;38157;-78
2021/04/30 07:40:09;;;;;;;17.40;11.60;;;;;;;;;;5032077;28;39322;-78
2021/04/30 07:42:35;;;;;;;18.90;11.50;;;;;;;;;;5033717;28;37950;-78
2021/04/30 07:45:03;;;;;;;19.88;11.90;;;;;;;;;;5036940;28;38709;-78
2021/04/30 07:47:30;;;;;;;19.48;13.10;;;;;;;;;;5032260;28;48485;-78
2021/04/30 07:49:56;;;;;;;17.05;12.20;;;;;;;;;;5053128;28;36969;-78
2021/04/30 07:52:29;;;;;;;17.92;13.57;;;;;;;;;;5043087;28;37782;-81
2021/04/30 07:54:55;;;;;;;17.55;13.13;;;;;;;;;;5065141;28;38902;-81
2021/04/30 07:57:21;;;;;;;17.92;13.60;;;;;;;;;;5063872;28;38094;-80
2021/04/30 07:59:48;;;;;;;19.23;13.10;;;;;;;;;;5059979;28;39292;-81
2021/04/30 08:02:14;;;;;;;16.70;12.05;;;;;;;;;;5054039;28;37021;-80
2021/04/30 08:04:41;;;;;;;20.65;13.30;;;;;;;;;;5051575;28;38511;-81
2021/04/30 08:07:07;;;;;;;19.10;12.60;;;;;;;;;;5049405;28;39064;-80
2021/04/30 08:09:34;;;;;;;21.75;14.93;;;;;;;;;;5046377;28;38851;-79
2021/04/30 08:12:00;;;;;;;19.70;13.88;;;;;;;;;;5041231;28;38726;-79
2021/04/30 08:14:26;;;;;;;19.42;11.73;;;;;;;;;;5057377;28;40571;-80
2021/04/30 08:16:53;;;;;;;15.77;12.55;;;;;;;;;;5044289;28;38981;-80
2021/04/30 08:19:19;;;;;;;20.50;14.30;;;;;;;;;;5074729;28;37793;-81
2021/04/30 08:21:45;;;;;;;18.38;14.00;;;;;;;;;;5054517;28;37557;-80
2021/04/30 08:24:14;;;;;;;20.80;13.98;;;;;;;;;;5055860;28;38150;-81
2021/04/30 08:26:40;;;;;;;22.55;14.70;;;;;;;;;;5053028;28;38507;-80
2021/04/30 08:29:07;;;;;;;19.95;15.13;;;;;;;;;;5043115;28;39500;-80
2021/04/30 08:31:33;;;;;;;19.98;16.15;;;;;;;;;;5046288;28;38621;-80
2021/04/30 08:34:00;;;;;;;25.08;18.17;;;;;;;;;;5051055;28;38732;-82
2021/04/30 08:36:27;;;;;;;23.70;17.17;;;;;;;;;;5063771;28;38693;-83
2021/04/30 08:38:54;;;;;;;22.55;16.70;;;;;;;;;;5064895;28;37752;-81
2021/04/30 08:41:21;;;;;;;21.95;17.83;;;;;;;;;;5060410;28;38495;-82
2021/04/30 08:43:48;;;;;;;25.08;17.42;;;;;;;;;;5071052;28;41461;-83
2021/04/30 08:46:17;;;;;;;21.48;16.95;;;;;;;;;;5070531;28;39889;-82
2021/04/30 08:48:45;;;;;;;26.20;18.10;;;;;;;;;;5069171;28;38102;-82
2021/04/30 08:51:13;;;;;;;23.80;18.02;;;;;;;;;;5067365;28;37615;-83
2021/04/30 08:53:41;;;;;;;25.57;17.77;;;;;;;;;;5072661;28;38987;-82
2021/04/30 08:58:44;;;;;;;28.67;20.10;;;;;;;;;;5389858;22;20041;-80
2021/04/30 09:01:10;;;;;;;27.30;19.40;;;;;;;;;;5077455;27;37549;-80
2021/04/30 09:03:42;;;;;;;23.25;18.85;;;;;;;;;;5091990;28;39042;-80
2021/04/30 09:06:09;;;;;;;26.15;13.88;;;;;;;;;;5066421;28;38833;-80
2021/04/30 09:12:01;;;;;;;26.13;14.17;;;;;;;;;;5093314;27;50595;-83
2021/04/30 09:14:37;;;;;;;17.83;11.83;;;;;;;;;;5065288;28;49998;-83
2021/04/30 09:17:14;;;;;;;15.90;12.27;;;;;;;;;;5082662;28;38158;-82
2021/04/30 09:25:20;;;;;;;12.97;8.27;;;;;;;;;;5188832;22;40618;-81
2021/04/30 09:27:48;;;;;;;14.23;8.47;;;;;;;;;;5116110;27;38944;-81
2021/04/30 09:30:18;;;;;;;14.90;9.77;;;;;;;;;;5103089;28;37708;-82
2021/04/30 09:33:03;;;;;;;11.67;8.00;;;;;;;;;;5124816;28;36074;-81
2021/04/30 09:35:30;;;;;;;14.07;8.57;;;;;;;;;;5125767;27;49080;-82
2021/04/30 09:37:57;;;;;;;9.83;7.83;;;;;;;;;;5099150;28;38209;-81
2021/04/30 09:40:31;;;;;;;8.30;6.40;;;;;;;;;;5103995;27;37324;-81
2021/04/30 09:43:04;;;;;;;10.70;6.90;;;;;;;;;;5116398;27;37271;-81
2021/04/30 09:45:32;;;;;;;10.17;6.70;;;;;;;;;;5102064;27;48145;-81
2021/04/30 09:47:59;;;;;;;8.70;6.28;;;;;;;;;;5109500;27;38639;-81
2021/04/30 09:50:27;;;;;;;10.52;6.40;;;;;;;;;;5101720;27;38337;-81
2021/04/30 09:52:56;;;;;;;12.23;5.90;;;;;;;;;;5104055;28;37908;-81
2021/04/30 09:55:23;;;;;;;8.80;6.00;;;;;;;;;;5096747;27;39835;-81
2021/04/30 09:57:50;;;;;;;12.00;6.93;;;;;;;;;;5117353;27;37554;-81
2021/04/30 10:00:17;;;;;;;9.18;5.80;;;;;;;;;;5121495;27;36732;-81
2021/04/30 10:02:45;;;;;;;18.40;6.25;;;;;;;;;;5127129;27;37097;-81
2021/04/30 10:05:19;;;;;;;12.88;6.60;;;;;;;;;;5119288;27;41134;-81
2021/04/30 10:07:45;;;;;;;10.47;6.00;;;;;;;;;;5103128;27;39211;-80
2021/04/30 10:10:14;;;;;;;13.05;5.93;;;;;;;;;;5111931;27;38327;-81
2021/04/30 10:12:42;;;;;;;11.48;6.43;;;;;;;;;;5096970;27;35589;-81
2021/04/30 10:15:10;;;;;;;17.07;5.90;;;;;;;;;;5105399;27;39891;-81
2021/04/30 10:17:37;;;;;;;12.90;6.37;;;;;;;;;;5100877;27;38327;-80
2021/04/30 10:20:04;;;;;;;16.47;6.07;;;;;;;;;;5095709;27;39147;-81
2021/04/30 10:22:30;;;;;;;13.50;6.57;;;;;;;;;;5122832;27;49010;-81
2021/04/30 10:24:58;;;;;;;15.00;6.30;;;;;;;;;;5129442;27;39905;-82
2021/04/30 10:27:29;;;;;;;11.60;5.93;;;;;;;;;;5113196;27;41760;-81
2021/04/30 10:29:59;;;;;;;13.77;5.70;;;;;;;;;;5101659;27;37584;-81
2021/04/30 10:32:26;;;;;;;9.30;4.47;;;;;;;;;;5100593;27;38331;-81
2021/04/30 10:34:54;;;;;;;9.15;4.55;;;;;;;;;;5108663;27;39770;-81
2021/04/30 10:37:26;;;;;;;9.03;4.93;;;;;;;;;;5121635;27;38983;-81
2021/04/30 10:39:56;;;;;;;10.50;5.00;;;;;;;;;;5112469;28;36689;-81
2021/04/30 10:42:26;;;;;;;8.23;4.03;;;;;;;;;;5105519;27;36580;-81
2021/04/30 10:45:01;;;;;;;5.73;3.37;;;;;;;;;;5106958;28;39919;-81
2021/04/30 10:47:27;;;;;;;5.75;4.05;;;;;;;;;;5104338;28;37688;-80
2021/04/30 10:50:11;;;;;;;12.83;5.40;;;;;;;;;;5109648;27;37226;-81
2021/04/30 10:52:37;;;;;;;10.32;5.32;;;;;;;;;;5109967;28;47874;-81
2021/04/30 10:55:05;;;;;;;9.73;4.97;;;;;;;;;;5108144;27;39195;-80
2021/04/30 10:57:50;;;;;;;12.27;4.90;;;;;;;;;;5126866;27;38789;-81
2021/04/30 11:00:18;;;;;;;9.90;4.95;;;;;;;;;;5107917;27;37997;-80
2021/04/30 11:02:44;;;;;;;11.23;4.95;;;;;;;;;;5113289;27;36708;-81
2021/04/30 11:05:12;;;;;;;8.50;5.27;;;;;;;;;;5108330;28;38463;-81
2021/04/30 11:07:51;;;;;;;10.63;5.15;;;;;;;;;;5113942;27;38449;-81
2021/04/30 11:10:30;;;;;;;11.93;5.22;;;;;;;;;;5108973;27;38307;-80
2021/04/30 11:13:01;;;;;;;10.17;5.33;;;;;;;;;;5106079;27;37664;-81
2021/04/30 11:15:30;;;;;;;14.50;6.10;;;;;;;;;;5107433;27;48230;-80
2021/04/30 11:17:57;;;;;;;14.17;6.00;;;;;;;;;;5102562;27;37270;-81
2021/04/30 11:20:28;;;;;;;13.90;6.33;;;;;;;;;;5128222;27;39902;-81
2021/04/30 11:23:13;;;;;;;11.47;5.53;;;;;;;;;;5133200;27;37716;-81
2021/04/30 11:25:58;;;;;;;8.47;5.13;;;;;;;;;;5109077;27;46929;-81
2021/04/30 11:28:57;;;;;;;14.80;5.60;;;;;;;;;;5106079;28;37480;-81
2021/04/30 11:31:32;;;;;;;18.63;8.40;;;;;;;;;;5104058;27;37066;-81
2021/04/30 11:34:16;;;;;;;10.37;5.80;;;;;;;;;;5102953;28;36086;-80
2021/04/30 11:36:44;;;;;;;14.30;6.37;;;;;;;;;;5092335;28;47557;-81
2021/04/30 11:39:17;;;;;;;13.13;6.90;;;;;;;;;;5090588;28;37597;-81
2021/04/30 11:41:44;;;;;;;10.73;5.87;;;;;;;;;;5085116;28;36645;-80
2021/04/30 11:44:11;;;;;;;12.23;6.13;;;;;;;;;;5092930;28;35869;-80
2021/04/30 11:46:40;;;;;;;11.80;5.67;;;;;;;;;;5096962;28;40152;-79
2021/04/30 11:49:07;;;;;;;10.73;5.70;;;;;;;;;;5077945;28;38037;-78
2021/04/30 11:51:43;;;;;;;14.83;6.77;;;;;;;;;;5080491;28;36820;-80
2021/04/30 11:54:10;;;;;;;17.00;6.57;;;;;;;;;;5080256;28;38639;-78
2021/04/30 11:56:37;;;;;;;9.90;6.40;;;;;;;;;;5080912;27;40274;-79
2021/04/30 11:59:04;;;;;;;18.27;6.43;;;;;;;;;;5078703;28;37710;-80
2021/04/30 12:01:30;;;;;;;11.27;5.97;;;;;;;;;;5078289;28;37188;-80
2021/04/30 12:03:57;;;;;;;11.65;6.00;;;;;;;;;;5080020;28;37775;-79
2021/04/30 12:06:24;;;;;;;10.97;5.53;;;;;;;;;;5083726;28;37192;-79
2021/04/30 12:08:52;;;;;;;9.07;5.73;;;;;;;;;;5102185;28;38602;-80
2021/04/30 12:11:38;;;;;;;11.27;6.50;;;;;;;;;;5104070;27;38756;-81
2021/04/30 12:14:06;;;;;;;10.82;4.95;;;;;;;;;;5100655;28;37947;-80
2021/04/30 12:16:32;;;;;;;8.45;5.45;;;;;;;;;;5101081;28;40199;-80
2021/04/30 12:19:01;;;;;;;7.22;5.20;;;;;;;;;;5096944;28;36665;-79
2021/04/30 12:21:29;;;;;;;6.68;4.65;;;;;;;;;;5091843;28;48988;-80
2021/04/30 12:23:55;;;;;;;9.27;5.50;;;;;;;;;;5093674;28;36857;-79
2021/04/30 12:26:25;;;;;;;10.18;4.95;;;;;;;;;;5097649;27;37734;-80
2021/04/30 12:28:51;;;;;;;10.85;5.90;;;;;;;;;;5113020;27;39521;-80
2021/04/30 12:31:17;;;;;;;9.25;5.07;;;;;;;;;;5118247;27;37970;-80
2021/04/30 12:33:47;;;;;;;13.23;4.93;;;;;;;;;;5102264;27;37012;-80
2021/04/30 12:36:14;;;;;;;13.82;4.82;;;;;;;;;;5104518;27;36589;-80
2021/04/30 12:38:43;;;;;;;9.95;4.70;;;;;;;;;;5105247;27;37483;-80
2021/04/30 12:41:10;;;;;;;11.98;4.78;;;;;;;;;;5114573;27;38255;-80
2021/04/30 12:43:38;;;;;;;9.70;4.22;;;;;;;;;;5121010;27;37162;-79
2021/04/30 12:46:12;;;;;;;9.65;5.00;;;;;;;;;;5088826;27;37923;-79
2021/04/30 12:48:40;;;;;;;7.97;4.18;;;;;;;;;;5104390;27;38288;-79
2021/04/30 12:51:07;;;;;;;9.35;4.15;;;;;;;;;;5097735;28;36661;-80
2021/04/30 12:53:34;;;;;;;7.82;3.42;;;;;;;;;;5094894;28;36927;-79
2021/04/30 12:56:00;;;;;;;11.82;4.22;;;;;;;;;;5097795;27;37891;-79
2021/04/30 12:58:26;;;;;;;8.63;3.80;;;;;;;;;;5106234;27;36848;-79
2021/04/30 13:00:53;;;;;;;6.60;3.95;;;;;;;;;;5098045;28;36659;-80
2021/04/30 13:03:19;;;;;;;7.65;3.95;;;;;;;;;;5115762;27;37661;-80
2021/04/30 13:05:48;;;;;;;13.00;3.95;;;;;;;;;;5107911;28;37898;-80
2021/04/30 13:08:14;;;;;;;8.18;4.45;;;;;;;;;;5118009;27;39995;-80
2021/04/30 13:10:41;;;;;;;8.60;4.22;;;;;;;;;;5118014;27;38775;-80
2021/04/30 13:13:07;;;;;;;8.77;4.38;;;;;;;;;;5098874;28;36261;-80
2021/04/30 13:15:36;;;;;;;9.45;3.60;;;;;;;;;;5108947;28;36398;-80
2021/04/30 13:18:02;;;;;;;6.00;3.60;;;;;;;;;;5111616;27;37615;-79
2021/04/30 13:20:33;;;;;;;8.85;3.67;;;;;;;;;;5122558;27;38892;-80
2021/04/30 13:22:59;;;;;;;7.90;3.97;;;;;;;;;;5103608;28;37799;-79
2021/04/30 13:25:36;;;;;;;8.15;4.38;;;;;;;;;;5111925;27;40581;-78
2021/04/30 13:28:14;;;;;;;10.50;4.20;;;;;;;;;;5093846;27;38505;-79
2021/04/30 13:30:41;;;;;;;7.95;4.47;;;;;;;;;;5113253;28;39018;-80
2021/04/30 13:33:34;;;;;;;12.63;4.28;;;;;;;;;;5094711;27;36049;-79
2021/04/30 13:36:01;;;;;;;7.28;3.83;;;;;;;;;;5100837;27;39156;-79
2021/04/30 13:38:28;;;;;;;8.75;3.88;;;;;;;;;;5112662;27;49062;-80
2021/04/30 13:41:16;;;;;;;6.70;4.20;;;;;;;;;;5123817;27;36957;-80
2021/04/30 13:43:44;;;;;;;7.82;4.45;;;;;;;;;;5112370;27;47279;-80
2021/04/30 13:46:10;;;;;;;10.35;4.15;;;;;;;;;;5113302;27;39511;-79
2021/04/30 13:48:43;;;;;;;8.77;4.30;;;;;;;;;;5115240;28;39486;-79
2021/04/30 13:51:10;;;;;;;6.65;3.72;;;;;;;;;;5114402;27;38098;-81
2021/04/30 13:53:37;;;;;;;8.75;4.07;;;;;;;;;;5094223;27;36653;-79
2021/04/30 13:56:04;;;;;;;7.00;3.70;;;;;;;;;;5093228;27;37551;-79
2021/04/30 13:58:32;;;;;;;7.75;3.80;;;;;;;;;;5109453;27;38585;-80
2021/04/30 14:00:58;;;;;;;8.57;4.25;;;;;;;;;;5098326;27;36512;-79
2021/04/30 14:03:25;;;;;;;7.80;4.50;;;;;;;;;;5116526;27;36839;-80
2021/04/30 14:05:51;;;;;;;7.85;3.92;;;;;;;;;;5116715;27;38382;-80
2021/04/30 14:08:18;;;;;;;6.78;3.95;;;;;;;;;;5114256;27;38301;-80
2021/04/30 14:10:48;;;;;;;8.27;4.35;;;;;;;;;;5093740;27;36319;-79
2021/04/30 14:13:15;;;;;;;6.32;3.90;;;;;;;;;;5093007;27;35926;-80
2021/04/30 14:15:41;;;;;;;9.48;4.35;;;;;;;;;;5089964;27;39592;-80
2021/04/30 14:18:08;;;;;;;6.53;4.03;;;;;;;;;;5092332;27;37347;-80
2021/04/30 14:20:34;;;;;;;6.05;3.47;;;;;;;;;;5087220;27;38865;-80
2021/04/30 14:23:01;;;;;;;7.50;3.70;;;;;;;;;;5087556;27;35258;-80
2021/04/30 14:25:27;;;;;;;7.85;3.88;;;;;;;;;;5107631;27;47692;-79
2021/04/30 14:27:54;;;;;;;6.95;4.00;;;;;;;;;;5084663;27;37625;-79
2021/04/30 14:30:21;;;;;;;7.82;3.60;;;;;;;;;;5084818;27;34927;-79
2021/04/30 14:32:47;;;;;;;6.43;4.05;;;;;;;;;;5083315;27;36838;-80
2021/04/30 14:35:14;;;;;;;9.15;3.53;;;;;;;;;;5103254;27;39813;-79
2021/04/30 14:37:41;;;;;;;8.93;4.53;;;;;;;;;;5096968;27;38988;-79
2021/04/30 14:40:07;;;;;;;6.15;4.55;;;;;;;;;;5079333;27;38203;-79
2021/04/30 14:42:34;;;;;;;7.88;4.22;;;;;;;;;;5101998;27;36943;-78
2021/04/30 14:45:00;;;;;;;9.15;4.45;;;;;;;;;;5085077;27;39060;-80